Time;durP1;ratioP1;P1;durP2;ratioP2;P2;SDS_P1;SDS_P2;PMS_P1;PMS_P2;Temp;Humidity;BMP_temperature;BMP_pressure;BME280_temperature;BME280_humidity;BME280_pressure;Samples;Min_cycle;Max_cycle;Signal;HPM_P1;HPM_P2
2022/10/14 00:01:07;;;;;;;7.37;5.00;;;;;;;;;;5073489;28;20214;-42
2022/10/14 00:03:35;;;;;;;5.10;4.60;;;;;;;;;;5060639;28;20229;-40
2022/10/14 00:06:04;;;;;;;6.83;5.23;;;;;;;;;;5065438;28;20215;-40
2022/10/14 00:08:32;;;;;;;5.30;4.80;;;;;;;;;;5064009;28;20207;-37
2022/10/14 00:11:04;;;;;;;4.73;4.23;;;;;;;;;;5062784;28;20239;-40
2022/10/14 00:13:31;;;;;;;5.30;4.63;;;;;;;;;;5062433;28;20262;-38
2022/10/14 00:15:58;;;;;;;5.80;5.23;;;;;;;;;;5064398;28;20197;-37
2022/10/14 00:18:25;;;;;;;12.93;5.47;;;;;;;;;;5067151;28;20198;-33
2022/10/14 00:20:56;;;;;;;5.43;4.93;;;;;;;;;;5063750;28;20210;-42
2022/10/14 00:23:23;;;;;;;6.07;5.47;;;;;;;;;;5059429;28;20202;-38
2022/10/14 00:25:51;;;;;;;5.53;4.50;;;;;;;;;;5070786;28;20197;-35
2022/10/14 00:28:19;;;;;;;6.07;5.40;;;;;;;;;;5068226;28;20194;-36
2022/10/14 00:30:53;;;;;;;6.10;5.13;;;;;;;;;;5072432;28;20307;-37
2022/10/14 00:33:20;;;;;;;5.60;4.90;;;;;;;;;;5062648;28;20194;-34
2022/10/14 00:35:53;;;;;;;5.97;4.30;;;;;;;;;;5070087;28;20203;-41
2022/10/14 00:38:20;;;;;;;6.43;4.33;;;;;;;;;;5063127;28;20205;-31
2022/10/14 00:40:50;;;;;;;5.30;4.73;;;;;;;;;;5060103;28;20252;-38
2022/10/14 00:43:18;;;;;;;4.83;4.30;;;;;;;;;;5069959;28;20291;-42
2022/10/14 00:45:45;;;;;;;8.03;5.00;;;;;;;;;;5063091;28;20487;-37
2022/10/14 00:48:13;;;;;;;8.47;5.07;;;;;;;;;;5063800;28;20296;-37
2022/10/14 00:50:42;;;;;;;5.77;5.20;;;;;;;;;;5055077;28;20232;-39
2022/10/14 00:53:10;;;;;;;7.33;4.97;;;;;;;;;;5052530;28;20202;-39
2022/10/14 00:55:38;;;;;;;8.40;5.87;;;;;;;;;;5052083;28;20206;-35
2022/10/14 00:58:05;;;;;;;8.97;4.97;;;;;;;;;;5068737;28;20198;-39
2022/10/14 01:00:33;;;;;;;7.63;5.20;;;;;;;;;;5055704;28;20224;-43
2022/10/14 01:03:01;;;;;;;8.30;4.60;;;;;;;;;;5067825;28;20203;-35
2022/10/14 01:05:32;;;;;;;5.33;4.80;;;;;;;;;;5064972;28;20206;-40
2022/10/14 01:08:06;;;;;;;5.17;4.67;;;;;;;;;;5070427;28;20212;-41
2022/10/14 01:10:39;;;;;;;9.87;5.57;;;;;;;;;;5054144;28;20225;-42
2022/10/14 01:13:13;;;;;;;5.33;4.83;;;;;;;;;;5055776;28;20276;-35
2022/10/14 01:15:45;;;;;;;9.43;5.60;;;;;;;;;;5062233;28;20335;-39
2022/10/14 01:18:30;;;;;;;7.33;5.03;;;;;;;;;;5068078;28;20200;-35
2022/10/14 01:21:01;;;;;;;6.37;4.70;;;;;;;;;;5065121;28;20213;-36
2022/10/14 01:23:46;;;;;;;7.67;4.83;;;;;;;;;;5072166;28;20296;-37
2022/10/14 01:26:21;;;;;;;8.23;5.73;;;;;;;;;;5062177;28;20211;-41
2022/10/14 01:28:55;;;;;;;10.83;6.30;;;;;;;;;;5059279;28;20339;-37
2022/10/14 01:31:24;;;;;;;10.63;6.33;;;;;;;;;;5068488;28;20238;-37
2022/10/14 01:33:53;;;;;;;19.57;6.37;;;;;;;;;;5061109;28;20288;-38
2022/10/14 01:36:23;;;;;;;7.60;5.63;;;;;;;;;;5065938;28;20210;-34
2022/10/14 01:38:53;;;;;;;8.73;6.30;;;;;;;;;;5060605;28;20190;-42
2022/10/14 01:41:21;;;;;;;12.30;5.70;;;;;;;;;;5069725;28;20217;-36
2022/10/14 01:43:50;;;;;;;6.87;5.47;;;;;;;;;;5059406;28;20194;-36
2022/10/14 01:46:18;;;;;;;6.73;5.67;;;;;;;;;;5055925;28;20202;-39
2022/10/14 01:48:48;;;;;;;7.77;6.37;;;;;;;;;;5067758;28;20298;-41
2022/10/14 01:51:18;;;;;;;10.67;6.43;;;;;;;;;;5063264;28;20225;-39
2022/10/14 01:53:48;;;;;;;10.17;6.43;;;;;;;;;;5056352;28;20194;-36
2022/10/14 01:56:17;;;;;;;8.40;5.53;;;;;;;;;;5055376;28;20202;-40
2022/10/14 01:58:46;;;;;;;6.77;5.70;;;;;;;;;;5063828;28;20204;-39
2022/10/14 02:01:13;;;;;;;9.20;5.97;;;;;;;;;;5060437;28;20299;-37
2022/10/14 02:03:41;;;;;;;5.40;4.73;;;;;;;;;;5059882;28;20206;-41
2022/10/14 02:06:12;;;;;;;8.27;6.47;;;;;;;;;;5067247;28;20211;-37
2022/10/14 02:08:44;;;;;;;9.17;6.57;;;;;;;;;;5065504;28;20208;-41
2022/10/14 02:11:14;;;;;;;6.43;5.37;;;;;;;;;;5056909;28;20231;-39
2022/10/14 02:13:46;;;;;;;8.60;6.07;;;;;;;;;;5063327;28;20228;-43
2022/10/14 02:16:18;;;;;;;8.67;6.00;;;;;;;;;;5061567;28;20240;-42
2022/10/14 02:18:47;;;;;;;6.30;5.70;;;;;;;;;;5066729;28;20204;-41
2022/10/14 02:21:18;;;;;;;5.67;5.07;;;;;;;;;;5074709;28;20224;-41
2022/10/14 02:23:47;;;;;;;6.80;6.03;;;;;;;;;;5055607;28;20230;-40
2022/10/14 02:26:14;;;;;;;7.20;5.77;;;;;;;;;;5062948;28;20268;-42
2022/10/14 02:28:43;;;;;;;8.20;5.87;;;;;;;;;;5063807;28;20297;-35
2022/10/14 02:31:12;;;;;;;8.73;6.73;;;;;;;;;;5060514;28;20214;-38
2022/10/14 02:33:40;;;;;;;7.50;6.07;;;;;;;;;;5060978;28;20205;-40
2022/10/14 02:36:09;;;;;;;9.43;6.63;;;;;;;;;;5069894;28;20205;-34
2022/10/14 02:38:38;;;;;;;7.00;6.00;;;;;;;;;;5065682;28;20202;-40
2022/10/14 02:41:07;;;;;;;10.13;7.80;;;;;;;;;;5062553;28;20232;-38
2022/10/14 02:43:34;;;;;;;11.43;7.00;;;;;;;;;;5065408;28;20213;-40
2022/10/14 02:46:02;;;;;;;10.93;7.03;;;;;;;;;;5069760;28;20197;-38
2022/10/14 02:48:29;;;;;;;9.30;7.10;;;;;;;;;;5069433;28;20293;-42
2022/10/14 02:50:56;;;;;;;11.77;7.73;;;;;;;;;;5070310;28;20232;-38
2022/10/14 02:53:23;;;;;;;9.23;7.70;;;;;;;;;;5058878;28;20202;-42
2022/10/14 02:55:52;;;;;;;8.20;6.87;;;;;;;;;;5054706;28;20207;-38
2022/10/14 02:58:19;;;;;;;8.70;7.20;;;;;;;;;;5064180;28;20205;-36
2022/10/14 03:00:46;;;;;;;9.57;7.60;;;;;;;;;;5072991;28;20221;-40
2022/10/14 03:03:13;;;;;;;9.13;7.63;;;;;;;;;;5059749;28;20202;-42
2022/10/14 03:05:40;;;;;;;9.53;7.03;;;;;;;;;;5064883;28;20209;-37
2022/10/14 03:08:07;;;;;;;8.43;6.40;;;;;;;;;;5062117;28;20220;-43
2022/10/14 03:10:35;;;;;;;11.50;8.07;;;;;;;;;;5064012;28;20222;-40
2022/10/14 03:13:03;;;;;;;8.97;7.00;;;;;;;;;;5068018;28;20289;-37
2022/10/14 03:15:31;;;;;;;8.43;6.23;;;;;;;;;;5062614;28;20202;-46
2022/10/14 03:18:01;;;;;;;7.80;6.93;;;;;;;;;;5055962;28;20204;-38
2022/10/14 03:20:28;;;;;;;8.10;6.00;;;;;;;;;;5061933;28;20226;-38
2022/10/14 03:22:55;;;;;;;9.67;6.60;;;;;;;;;;5052695;28;20236;-42
2022/10/14 03:25:23;;;;;;;8.07;7.00;;;;;;;;;;5051924;28;20205;-36
2022/10/14 03:27:50;;;;;;;9.57;6.70;;;;;;;;;;5059938;28;20208;-42
2022/10/14 03:30:18;;;;;;;6.87;5.77;;;;;;;;;;5062361;28;20218;-35
2022/10/14 03:32:46;;;;;;;10.20;6.70;;;;;;;;;;5055698;28;20224;-36
2022/10/14 03:35:13;;;;;;;10.00;7.07;;;;;;;;;;5060160;28;20209;-40
2022/10/14 03:37:40;;;;;;;9.57;6.77;;;;;;;;;;5055654;28;20206;-35
2022/10/14 03:40:08;;;;;;;7.63;6.63;;;;;;;;;;5064867;28;20223;-34
2022/10/14 03:42:35;;;;;;;9.87;6.33;;;;;;;;;;5053806;28;20222;-41
2022/10/14 03:45:02;;;;;;;8.20;6.30;;;;;;;;;;5058920;28;20228;-38
2022/10/14 03:47:31;;;;;;;7.97;6.30;;;;;;;;;;5069462;28;20198;-39
2022/10/14 03:49:58;;;;;;;7.93;6.27;;;;;;;;;;5064085;28;20285;-40
2022/10/14 03:52:25;;;;;;;6.17;5.37;;;;;;;;;;5053265;28;20218;-42
2022/10/14 03:54:52;;;;;;;6.03;5.43;;;;;;;;;;5053769;28;20198;-41
2022/10/14 03:57:19;;;;;;;7.13;6.20;;;;;;;;;;5052564;28;20217;-43
2022/10/14 03:59:46;;;;;;;8.13;6.40;;;;;;;;;;5053132;28;20313;-38
2022/10/14 04:02:14;;;;;;;12.47;6.13;;;;;;;;;;5052509;28;20205;-37
2022/10/14 04:04:42;;;;;;;8.03;5.70;;;;;;;;;;5062882;28;20292;-37
2022/10/14 04:09:38;;;;;;;12.07;5.90;;;;;;;;;;5047728;28;20281;-41
2022/10/14 04:12:05;;;;;;;6.97;5.83;;;;;;;;;;5042590;28;20228;-39
2022/10/14 04:14:32;;;;;;;7.13;5.70;;;;;;;;;;5049072;28;20210;-37
2022/10/14 04:17:02;;;;;;;7.80;5.93;;;;;;;;;;5029929;28;20238;-37
2022/10/14 04:19:29;;;;;;;9.47;6.30;;;;;;;;;;5043946;28;20210;-41
2022/10/14 04:21:58;;;;;;;6.57;5.63;;;;;;;;;;5049582;28;20224;-40
2022/10/14 04:24:25;;;;;;;8.40;5.67;;;;;;;;;;5050397;28;20210;-39
2022/10/14 04:26:52;;;;;;;7.53;6.37;;;;;;;;;;5040665;28;20243;-39
2022/10/14 04:29:19;;;;;;;9.57;6.77;;;;;;;;;;5044450;28;20206;-40
2022/10/14 04:31:46;;;;;;;7.73;6.17;;;;;;;;;;5049546;28;20218;-39
2022/10/14 04:34:13;;;;;;;6.80;5.57;;;;;;;;;;5039724;28;20206;-35
2022/10/14 04:36:41;;;;;;;11.13;6.50;;;;;;;;;;5048452;28;20289;-41
2022/10/14 04:39:09;;;;;;;8.63;5.97;;;;;;;;;;5049626;28;20194;-40
2022/10/14 04:41:37;;;;;;;7.50;5.87;;;;;;;;;;5048024;28;20288;-38
2022/10/14 04:44:04;;;;;;;7.70;5.80;;;;;;;;;;5036530;28;20199;-41
2022/10/14 04:46:31;;;;;;;8.77;6.37;;;;;;;;;;5044453;28;20207;-40
2022/10/14 04:48:58;;;;;;;7.13;6.43;;;;;;;;;;5038391;28;20198;-39
2022/10/14 04:51:25;;;;;;;9.93;6.80;;;;;;;;;;5047305;28;20232;-43
2022/10/14 04:53:52;;;;;;;11.60;7.30;;;;;;;;;;5050052;28;20652;-40
2022/10/14 04:56:21;;;;;;;9.87;6.77;;;;;;;;;;5047250;28;20210;-40
2022/10/14 04:58:48;;;;;;;11.20;6.73;;;;;;;;;;5044718;28;20208;-36
2022/10/14 05:01:17;;;;;;;12.97;6.30;;;;;;;;;;5039517;28;20218;-38
2022/10/14 05:03:44;;;;;;;8.47;6.33;;;;;;;;;;5043419;28;20293;-43
2022/10/14 05:06:12;;;;;;;7.43;6.43;;;;;;;;;;5048548;28;20213;-43
2022/10/14 05:08:39;;;;;;;7.67;5.70;;;;;;;;;;5048843;28;20284;-42
2022/10/14 05:11:06;;;;;;;7.30;6.10;;;;;;;;;;5038058;28;20222;-39
2022/10/14 05:13:34;;;;;;;10.00;6.00;;;;;;;;;;5046486;28;20272;-42
2022/10/14 05:16:02;;;;;;;10.80;6.60;;;;;;;;;;5040676;28;20195;-41
2022/10/14 05:18:29;;;;;;;9.50;7.13;;;;;;;;;;5033488;28;20209;-40
2022/10/14 05:20:58;;;;;;;9.03;6.40;;;;;;;;;;5048694;28;20222;-35
2022/10/14 05:23:25;;;;;;;7.37;6.33;;;;;;;;;;5049197;28;20194;-38
2022/10/14 05:25:53;;;;;;;9.30;6.50;;;;;;;;;;5041938;28;20208;-44
2022/10/14 05:28:20;;;;;;;6.97;6.10;;;;;;;;;;5039890;28;20202;-38
2022/10/14 05:30:48;;;;;;;10.17;6.57;;;;;;;;;;5047942;28;20233;-40
2022/10/14 05:33:16;;;;;;;9.27;6.07;;;;;;;;;;5039328;28;20345;-43
2022/10/14 05:35:43;;;;;;;11.37;6.97;;;;;;;;;;5046507;28;20209;-40
2022/10/14 05:38:11;;;;;;;6.47;5.40;;;;;;;;;;5048914;28;20210;-42
2022/10/14 05:40:38;;;;;;;6.67;5.93;;;;;;;;;;5049228;28;20229;-38
2022/10/14 05:43:06;;;;;;;12.80;6.53;;;;;;;;;;5039442;28;20268;-40
2022/10/14 05:45:33;;;;;;;6.77;5.23;;;;;;;;;;5048239;28;20202;-38
2022/10/14 05:48:01;;;;;;;8.03;6.17;;;;;;;;;;5043998;28;20202;-41
2022/10/14 05:50:28;;;;;;;8.20;6.53;;;;;;;;;;5045235;28;20232;-41
2022/10/14 05:52:55;;;;;;;10.87;6.70;;;;;;;;;;5049318;28;20222;-35
2022/10/14 05:55:23;;;;;;;10.60;6.13;;;;;;;;;;5046647;28;20202;-37
2022/10/14 05:57:50;;;;;;;6.73;6.00;;;;;;;;;;5043043;28;20203;-40
2022/10/14 06:00:18;;;;;;;6.87;5.73;;;;;;;;;;5049141;28;20304;-39
2022/10/14 06:02:45;;;;;;;7.93;6.03;;;;;;;;;;5047422;28;20198;-42
2022/10/14 06:05:14;;;;;;;11.43;5.97;;;;;;;;;;5048966;28;20198;-38
2022/10/14 06:07:41;;;;;;;9.70;6.50;;;;;;;;;;5050155;28;20216;-36
2022/10/14 06:10:09;;;;;;;7.67;5.40;;;;;;;;;;5050866;28;20219;-39
2022/10/14 06:12:36;;;;;;;7.57;6.03;;;;;;;;;;5039815;28;20234;-39
2022/10/14 06:15:04;;;;;;;7.57;5.83;;;;;;;;;;5046508;28;20384;-39
2022/10/14 06:17:31;;;;;;;8.87;6.60;;;;;;;;;;5046994;28;20202;-38
2022/10/14 06:19:58;;;;;;;16.23;7.30;;;;;;;;;;5040354;28;20218;-37
2022/10/14 06:22:28;;;;;;;10.13;6.87;;;;;;;;;;5049741;28;20290;-38
2022/10/14 06:24:55;;;;;;;9.10;6.60;;;;;;;;;;5042916;28;20195;-38
2022/10/14 06:27:22;;;;;;;10.97;7.10;;;;;;;;;;5037884;28;20191;-38
2022/10/14 06:29:49;;;;;;;10.80;7.27;;;;;;;;;;5034898;28;20232;-38
2022/10/14 06:32:16;;;;;;;11.77;7.33;;;;;;;;;;5050145;28;20214;-38
2022/10/14 06:34:44;;;;;;;15.53;7.60;;;;;;;;;;5046533;28;20206;-36
2022/10/14 06:37:11;;;;;;;10.53;6.97;;;;;;;;;;5054222;28;20216;-40
2022/10/14 06:39:40;;;;;;;8.87;6.80;;;;;;;;;;5054078;28;20205;-37
2022/10/14 06:42:07;;;;;;;9.87;6.33;;;;;;;;;;5051343;28;20198;-40
2022/10/14 06:44:35;;;;;;;11.87;7.10;;;;;;;;;;5052350;28;20289;-39
2022/10/14 06:47:02;;;;;;;9.23;6.57;;;;;;;;;;5053511;28;20236;-35
2022/10/14 06:49:29;;;;;;;11.03;7.30;;;;;;;;;;5044906;28;20201;-38
2022/10/14 06:51:56;;;;;;;10.83;6.93;;;;;;;;;;5053971;28;20198;-36
2022/10/14 06:54:23;;;;;;;12.97;7.93;;;;;;;;;;5054335;28;20206;-34
2022/10/14 06:56:52;;;;;;;13.90;8.20;;;;;;;;;;5049516;28;20297;-35
2022/10/14 06:59:19;;;;;;;13.77;7.17;;;;;;;;;;5051691;28;20274;-43
2022/10/14 07:01:46;;;;;;;10.53;7.23;;;;;;;;;;5054376;28;20201;-41
2022/10/14 07:04:13;;;;;;;10.93;7.13;;;;;;;;;;5047904;28;20286;-37
2022/10/14 07:06:40;;;;;;;8.10;6.20;;;;;;;;;;5053037;28;20204;-38
2022/10/14 07:09:08;;;;;;;11.10;7.50;;;;;;;;;;5053063;28;20208;-37
2022/10/14 07:11:35;;;;;;;9.47;6.53;;;;;;;;;;5053955;28;20218;-38
2022/10/14 07:14:04;;;;;;;10.33;7.40;;;;;;;;;;5044550;28;20218;-42
2022/10/14 07:16:32;;;;;;;14.60;8.10;;;;;;;;;;5051386;28;20198;-38
2022/10/14 07:19:02;;;;;;;8.23;6.97;;;;;;;;;;5050495;28;20198;-41
2022/10/14 07:21:29;;;;;;;12.87;7.70;;;;;;;;;;5052127;28;20260;-36
2022/10/14 07:23:56;;;;;;;9.67;6.90;;;;;;;;;;5054101;28;20644;-38
2022/10/14 07:26:24;;;;;;;14.77;7.53;;;;;;;;;;5050570;28;20209;-36
2022/10/14 07:28:51;;;;;;;13.30;7.17;;;;;;;;;;5047153;28;20671;-42
2022/10/14 07:31:19;;;;;;;10.47;7.47;;;;;;;;;;5053995;28;20224;-36
2022/10/14 07:33:47;;;;;;;9.43;7.60;;;;;;;;;;5044820;28;20210;-40
2022/10/14 07:36:15;;;;;;;13.33;8.20;;;;;;;;;;5052784;28;20380;-37
2022/10/14 07:38:42;;;;;;;12.40;8.10;;;;;;;;;;5051608;28;20208;-39
2022/10/14 07:41:16;;;;;;;11.33;8.10;;;;;;;;;;5039228;28;20218;-38
2022/10/14 07:43:44;;;;;;;11.57;8.13;;;;;;;;;;5047379;28;20240;-38
2022/10/14 07:46:11;;;;;;;13.20;7.83;;;;;;;;;;5043918;28;20221;-39
2022/10/14 07:48:40;;;;;;;10.40;6.83;;;;;;;;;;5045089;28;20238;-35
2022/10/14 07:51:07;;;;;;;11.60;8.27;;;;;;;;;;5050678;28;20214;-37
2022/10/14 07:53:35;;;;;;;8.57;7.00;;;;;;;;;;5053258;28;20218;-38
2022/10/14 07:56:02;;;;;;;13.93;7.80;;;;;;;;;;5051656;28;20212;-42
2022/10/14 07:58:30;;;;;;;16.47;8.10;;;;;;;;;;5046924;28;20206;-40
2022/10/14 08:00:58;;;;;;;11.73;8.37;;;;;;;;;;5052925;28;20224;-41
2022/10/14 08:03:26;;;;;;;10.93;8.13;;;;;;;;;;5051440;28;20225;-33
2022/10/14 08:06:06;;;;;;;11.03;7.93;;;;;;;;;;5050689;28;20233;-39
2022/10/14 08:08:33;;;;;;;9.67;7.23;;;;;;;;;;5048609;28;20293;-41
2022/10/14 08:11:01;;;;;;;10.70;8.20;;;;;;;;;;5047050;28;20218;-38
2022/10/14 08:13:28;;;;;;;14.07;8.30;;;;;;;;;;5040365;28;20318;-38
2022/10/14 08:15:57;;;;;;;9.30;7.93;;;;;;;;;;5047963;28;20295;-43
2022/10/14 08:18:24;;;;;;;11.97;8.80;;;;;;;;;;5044730;28;20198;-37
2022/10/14 08:20:52;;;;;;;14.87;9.33;;;;;;;;;;5052423;28;20242;-34
2022/10/14 08:23:20;;;;;;;9.40;7.50;;;;;;;;;;5051432;28;20190;-39
2022/10/14 08:25:48;;;;;;;16.57;8.30;;;;;;;;;;5052654;28;20213;-42
2022/10/14 08:28:15;;;;;;;12.90;9.00;;;;;;;;;;5039949;28;20211;-42
2022/10/14 08:30:43;;;;;;;11.17;8.07;;;;;;;;;;5050722;28;20230;-34
2022/10/14 08:33:11;;;;;;;12.67;7.70;;;;;;;;;;5044770;28;20249;-38
2022/10/14 08:35:39;;;;;;;11.37;7.53;;;;;;;;;;5051035;28;20206;-37
2022/10/14 08:38:06;;;;;;;13.60;8.57;;;;;;;;;;5047637;28;20220;-37
2022/10/14 08:40:46;;;;;;;12.97;7.67;;;;;;;;;;5049957;28;20678;-35
2022/10/14 08:43:18;;;;;;;9.63;7.87;;;;;;;;;;5053025;28;20211;-37
2022/10/14 08:45:48;;;;;;;12.40;8.03;;;;;;;;;;5039881;28;20205;-36
2022/10/14 08:48:17;;;;;;;9.47;7.43;;;;;;;;;;5036025;28;20293;-38
2022/10/14 08:50:53;;;;;;;11.60;7.13;;;;;;;;;;5040239;28;20240;-37
2022/10/14 08:53:23;;;;;;;10.97;7.40;;;;;;;;;;5048593;28;20214;-37
2022/10/14 08:55:53;;;;;;;18.13;8.33;;;;;;;;;;5050403;28;20197;-38
2022/10/14 08:58:24;;;;;;;14.10;8.40;;;;;;;;;;5050215;28;20227;-42
2022/10/14 09:00:52;;;;;;;9.50;6.97;;;;;;;;;;5045412;28;20230;-42
2022/10/14 09:03:21;;;;;;;12.40;7.60;;;;;;;;;;5042259;28;20211;-39
2022/10/14 09:05:52;;;;;;;9.93;7.90;;;;;;;;;;5047400;28;20198;-39
2022/10/14 09:08:26;;;;;;;10.73;7.50;;;;;;;;;;5048419;28;20215;-40
2022/10/14 09:10:54;;;;;;;9.70;7.90;;;;;;;;;;5047348;28;20227;-37
2022/10/14 09:13:26;;;;;;;12.30;8.43;;;;;;;;;;5042851;28;20214;-39
2022/10/14 09:15:58;;;;;;;11.83;7.67;;;;;;;;;;5046649;28;20214;-39
2022/10/14 09:18:28;;;;;;;8.60;7.17;;;;;;;;;;5044065;28;20203;-40
2022/10/14 09:20:56;;;;;;;11.10;7.37;;;;;;;;;;5031222;28;20234;-40
2022/10/14 09:23:24;;;;;;;11.00;7.77;;;;;;;;;;5043587;28;20217;-39
2022/10/14 09:25:56;;;;;;;9.93;7.33;;;;;;;;;;5043754;28;20197;-36
2022/10/14 09:28:30;;;;;;;15.80;8.27;;;;;;;;;;5044915;28;20270;-38
2022/10/14 09:30:57;;;;;;;11.77;7.23;;;;;;;;;;5045865;28;20228;-41
2022/10/14 09:33:27;;;;;;;10.23;7.60;;;;;;;;;;5041821;28;20223;-38
2022/10/14 09:35:54;;;;;;;12.10;7.50;;;;;;;;;;5048412;28;20198;-43
2022/10/14 09:38:21;;;;;;;8.30;7.13;;;;;;;;;;5044884;28;20211;-40
2022/10/14 09:40:50;;;;;;;15.57;8.70;;;;;;;;;;5037522;28;20253;-42
2022/10/14 09:43:19;;;;;;;11.80;7.43;;;;;;;;;;5043753;28;20202;-39
2022/10/14 09:45:48;;;;;;;11.20;7.27;;;;;;;;;;5047495;28;20473;-44
2022/10/14 09:48:16;;;;;;;10.10;7.30;;;;;;;;;;5039102;28;20203;-38
2022/10/14 09:50:50;;;;;;;16.20;7.27;;;;;;;;;;5046946;28;20226;-36
2022/10/14 09:53:18;;;;;;;10.97;7.80;;;;;;;;;;5048454;28;20225;-38
2022/10/14 09:55:48;;;;;;;12.83;7.23;;;;;;;;;;5043850;28;20208;-37
2022/10/14 09:58:17;;;;;;;12.57;7.40;;;;;;;;;;5046406;28;20233;-40
2022/10/14 10:00:46;;;;;;;8.90;6.77;;;;;;;;;;5049726;28;20249;-38
2022/10/14 10:03:25;;;;;;;14.37;6.70;;;;;;;;;;5040372;28;20202;-42
2022/10/14 10:05:59;;;;;;;8.50;6.80;;;;;;;;;;5047458;28;20208;-38
2022/10/14 10:08:27;;;;;;;9.67;7.20;;;;;;;;;;5048195;28;20308;-38
2022/10/14 10:10:58;;;;;;;12.57;6.87;;;;;;;;;;5047290;28;20218;-40
2022/10/14 10:13:31;;;;;;;12.47;6.70;;;;;;;;;;5049508;28;20253;-41
2022/10/14 10:16:01;;;;;;;8.73;6.27;;;;;;;;;;5047049;28;20284;-43
2022/10/14 10:18:28;;;;;;;8.90;6.50;;;;;;;;;;5044727;28;20218;-39
2022/10/14 10:21:05;;;;;;;8.97;6.70;;;;;;;;;;5049305;28;20222;-38
2022/10/14 10:23:33;;;;;;;9.00;6.33;;;;;;;;;;5049220;28;20197;-43
2022/10/14 10:26:15;;;;;;;15.20;7.03;;;;;;;;;;5045160;28;20212;-42
2022/10/14 10:28:45;;;;;;;11.80;7.70;;;;;;;;;;5041897;28;20530;-39
2022/10/14 10:31:19;;;;;;;11.70;7.23;;;;;;;;;;5048401;28;20232;-45
2022/10/14 10:33:53;;;;;;;9.97;7.20;;;;;;;;;;5041757;28;20214;-40
2022/10/14 10:36:25;;;;;;;12.27;6.40;;;;;;;;;;5047700;28;20209;-40
2022/10/14 10:39:02;;;;;;;11.20;6.90;;;;;;;;;;5048722;28;20275;-41
2022/10/14 10:41:42;;;;;;;7.80;6.00;;;;;;;;;;5046661;28;20233;-41
2022/10/14 10:44:24;;;;;;;10.13;6.47;;;;;;;;;;5038558;28;20196;-37
2022/10/14 10:47:12;;;;;;;9.47;6.10;;;;;;;;;;5047903;28;20198;-38
2022/10/14 10:49:48;;;;;;;12.13;6.20;;;;;;;;;;5043462;28;20221;-37
2022/10/14 10:52:28;;;;;;;8.83;6.17;;;;;;;;;;5051289;28;20233;-34
2022/10/14 10:55:00;;;;;;;13.00;6.20;;;;;;;;;;5043635;28;20414;-41
2022/10/14 10:57:36;;;;;;;15.13;6.40;;;;;;;;;;5047855;28;20210;-36
2022/10/14 11:00:07;;;;;;;11.87;6.23;;;;;;;;;;5052201;28;20225;-38
2022/10/14 11:02:58;;;;;;;7.43;5.93;;;;;;;;;;5054760;28;20620;-38
2022/10/14 11:05:42;;;;;;;6.83;5.20;;;;;;;;;;5031538;28;20198;-42
2022/10/14 11:13:33;;;;;;;9.80;4.80;;;;;;;;;;5057151;28;20221;-41
2022/10/14 11:16:03;;;;;;;6.63;4.60;;;;;;;;;;5075440;28;20204;-40
2022/10/14 11:18:35;;;;;;;7.07;4.00;;;;;;;;;;5047985;28;20667;-42
2022/10/14 11:21:10;;;;;;;4.73;3.63;;;;;;;;;;5047582;28;20229;-42
2022/10/14 11:23:42;;;;;;;6.23;4.07;;;;;;;;;;5073258;28;20554;-42
2022/10/14 11:26:13;;;;;;;10.50;3.13;;;;;;;;;;5074121;28;20217;-44
2022/10/14 11:28:44;;;;;;;3.83;2.87;;;;;;;;;;5056277;28;20187;-38
2022/10/14 11:31:15;;;;;;;2.90;2.60;;;;;;;;;;5056351;28;20221;-39
2022/10/14 11:33:49;;;;;;;3.93;2.60;;;;;;;;;;5050918;28;20226;-40
2022/10/14 11:36:24;;;;;;;7.17;2.67;;;;;;;;;;5055536;28;20208;-40
2022/10/14 11:38:59;;;;;;;4.03;2.20;;;;;;;;;;5055997;28;20290;-41
2022/10/14 11:41:33;;;;;;;3.53;2.40;;;;;;;;;;5036666;28;20236;-44
2022/10/14 11:44:03;;;;;;;2.87;2.03;;;;;;;;;;5047916;28;20202;-43
2022/10/14 11:46:34;;;;;;;2.47;2.13;;;;;;;;;;5059843;28;20305;-46
2022/10/14 11:49:04;;;;;;;3.23;2.10;;;;;;;;;;5051262;28;20198;-44
2022/10/14 11:51:35;;;;;;;3.57;2.33;;;;;;;;;;5069605;28;20726;-43
2022/10/14 11:54:04;;;;;;;8.33;2.30;;;;;;;;;;5040242;28;20207;-45
2022/10/14 11:56:42;;;;;;;4.87;2.10;;;;;;;;;;5033734;28;20584;-41
2022/10/14 11:59:36;;;;;;;2.37;2.00;;;;;;;;;;5054174;28;20671;-43
2022/10/14 12:02:11;;;;;;;4.40;2.20;;;;;;;;;;5025730;28;20250;-42
2022/10/14 12:04:40;;;;;;;5.93;2.50;;;;;;;;;;5047326;28;20201;-40
2022/10/14 12:07:11;;;;;;;4.67;2.03;;;;;;;;;;5058810;28;20198;-40
2022/10/14 12:09:43;;;;;;;3.30;2.60;;;;;;;;;;5047906;28;22058;-41
2022/10/14 12:12:13;;;;;;;5.93;2.50;;;;;;;;;;5047844;28;20213;-39
2022/10/14 12:14:43;;;;;;;3.93;2.53;;;;;;;;;;5052193;28;20226;-44
2022/10/14 12:17:16;;;;;;;2.83;2.47;;;;;;;;;;5046925;28;20201;-39
2022/10/14 12:19:44;;;;;;;3.77;2.30;;;;;;;;;;5043742;28;20227;-41
2022/10/14 12:22:16;;;;;;;3.80;2.23;;;;;;;;;;5053116;28;20213;-39
2022/10/14 12:24:45;;;;;;;4.53;1.80;;;;;;;;;;5052217;28;20554;-39
2022/10/14 12:27:13;;;;;;;3.87;2.60;;;;;;;;;;5046358;28;20234;-39
2022/10/14 12:29:42;;;;;;;6.33;2.30;;;;;;;;;;5053859;28;20226;-40
2022/10/14 12:32:19;;;;;;;3.53;2.10;;;;;;;;;;5048651;28;20202;-44
2022/10/14 12:34:47;;;;;;;2.00;1.90;;;;;;;;;;5048083;28;20597;-39
2022/10/14 12:37:33;;;;;;;3.33;2.23;;;;;;;;;;5066259;28;20228;-44
2022/10/14 12:40:15;;;;;;;3.73;2.63;;;;;;;;;;5031177;28;20226;-43
2022/10/14 12:42:57;;;;;;;5.70;1.90;;;;;;;;;;5049207;28;20201;-40
2022/10/14 12:45:25;;;;;;;2.20;2.10;;;;;;;;;;5045390;28;20259;-40
2022/10/14 12:48:01;;;;;;;2.30;2.10;;;;;;;;;;5053289;28;20208;-38
2022/10/14 12:50:29;;;;;;;4.53;2.10;;;;;;;;;;5052623;28;20225;-40
2022/10/14 12:52:58;;;;;;;3.27;2.00;;;;;;;;;;5059550;28;20209;-38
2022/10/14 12:55:26;;;;;;;1.90;1.80;;;;;;;;;;5052495;28;20225;-45
2022/10/14 12:57:56;;;;;;;2.87;2.17;;;;;;;;;;5049091;28;20220;-41
2022/10/14 13:00:29;;;;;;;5.70;2.10;;;;;;;;;;5056906;28;20234;-37
2022/10/14 13:02:59;;;;;;;2.27;2.07;;;;;;;;;;5036566;28;20198;-38
2022/10/14 13:05:31;;;;;;;2.23;1.97;;;;;;;;;;5040097;28;20293;-45
2022/10/14 13:08:11;;;;;;;3.10;1.70;;;;;;;;;;5053229;28;20666;-41
2022/10/14 13:10:43;;;;;;;3.93;1.90;;;;;;;;;;5051971;28;20542;-41
2022/10/14 13:13:30;;;;;;;1.97;1.87;;;;;;;;;;5045856;28;20212;-43
2022/10/14 13:16:02;;;;;;;3.20;1.90;;;;;;;;;;5050819;28;20232;-40
2022/10/14 13:18:36;;;;;;;2.00;1.87;;;;;;;;;;5049682;28;20289;-42
2022/10/14 13:21:04;;;;;;;2.00;1.70;;;;;;;;;;5061572;28;20224;-42
2022/10/14 13:23:35;;;;;;;4.47;2.10;;;;;;;;;;5066778;28;20201;-37
2022/10/14 13:26:09;;;;;;;5.77;2.20;;;;;;;;;;5065044;28;20209;-40
2022/10/14 13:28:42;;;;;;;3.73;2.10;;;;;;;;;;5039387;28;20206;-40
2022/10/14 13:31:13;;;;;;;3.27;1.93;;;;;;;;;;5053246;28;20231;-44
2022/10/14 13:33:43;;;;;;;3.10;2.07;;;;;;;;;;5041368;28;20293;-44
2022/10/14 13:36:14;;;;;;;2.73;2.20;;;;;;;;;;5059423;28;20225;-46
2022/10/14 13:38:45;;;;;;;2.90;2.23;;;;;;;;;;5054592;28;20298;-40
2022/10/14 13:41:15;;;;;;;4.07;2.00;;;;;;;;;;5054928;28;20283;-41
2022/10/14 13:43:43;;;;;;;2.03;1.90;;;;;;;;;;5040254;28;20214;-42
2022/10/14 13:46:14;;;;;;;7.43;6.30;;;;;;;;;;5054267;28;20210;-42
2022/10/14 13:48:43;;;;;;;4.00;2.40;;;;;;;;;;5044336;28;20210;-42
2022/10/14 13:51:23;;;;;;;3.93;3.30;;;;;;;;;;5061615;28;20777;-45
2022/10/14 13:53:51;;;;;;;10.87;3.03;;;;;;;;;;5044186;28;20197;-42
2022/10/14 13:56:21;;;;;;;2.97;2.20;;;;;;;;;;5054674;28;20218;-38
2022/10/14 13:58:49;;;;;;;4.03;2.30;;;;;;;;;;5047426;28;20206;-43
2022/10/14 14:01:18;;;;;;;2.27;1.93;;;;;;;;;;5045472;28;20604;-41
2022/10/14 14:03:46;;;;;;;2.40;2.07;;;;;;;;;;5041893;28;20202;-41
2022/10/14 14:06:15;;;;;;;5.40;2.73;;;;;;;;;;5056823;28;20209;-41
2022/10/14 14:08:47;;;;;;;4.97;2.40;;;;;;;;;;5054816;28;20241;-41
2022/10/14 14:11:18;;;;;;;3.93;2.60;;;;;;;;;;5049059;28;20226;-42
2022/10/14 14:13:48;;;;;;;7.23;3.10;;;;;;;;;;5043667;28;20293;-39
2022/10/14 14:16:20;;;;;;;3.90;2.60;;;;;;;;;;5055563;28;20222;-42
2022/10/14 14:18:51;;;;;;;5.37;2.70;;;;;;;;;;5040792;28;20197;-43
2022/10/14 14:21:21;;;;;;;4.47;2.37;;;;;;;;;;5043259;28;20228;-39
2022/10/14 14:23:51;;;;;;;14.23;2.23;;;;;;;;;;5061518;28;20224;-45
2022/10/14 14:26:19;;;;;;;4.93;2.27;;;;;;;;;;5048819;28;20210;-39
2022/10/14 14:28:47;;;;;;;4.77;2.70;;;;;;;;;;5059281;28;20209;-39
2022/10/14 14:31:16;;;;;;;7.23;2.47;;;;;;;;;;5067264;28;20775;-40
2022/10/14 14:33:45;;;;;;;2.40;2.20;;;;;;;;;;5056283;28;20206;-40
2022/10/14 14:36:14;;;;;;;11.33;3.30;;;;;;;;;;5064054;28;20228;-42
2022/10/14 14:38:46;;;;;;;5.30;3.03;;;;;;;;;;5054990;28;20206;-41
2022/10/14 14:41:18;;;;;;;4.23;3.20;;;;;;;;;;5040351;28;20222;-43
2022/10/14 14:43:46;;;;;;;5.23;3.43;;;;;;;;;;5053336;28;20209;-38
2022/10/14 14:46:18;;;;;;;3.20;3.00;;;;;;;;;;5052797;28;20202;-44
2022/10/14 14:48:48;;;;;;;2.87;1.93;;;;;;;;;;5046073;28;20204;-41
2022/10/14 14:51:15;;;;;;;5.00;2.00;;;;;;;;;;5054921;28;20236;-44
2022/10/14 14:53:43;;;;;;;3.53;2.53;;;;;;;;;;5062476;28;20202;-45
2022/10/14 14:56:14;;;;;;;1.97;1.70;;;;;;;;;;5050406;28;20244;-42
2022/10/14 14:58:46;;;;;;;1.57;1.47;;;;;;;;;;5050011;28;20202;-44
2022/10/14 15:01:18;;;;;;;1.73;1.63;;;;;;;;;;5048887;28;20221;-43